sensor_id;sensor_type;location;lat;lon;timestamp;temperature;humidity
13521;DHT22;6832;51.186;3.236;2024-02-23T00:02:23;24.30;47.00
13521;DHT22;6832;51.186;3.236;2024-02-23T00:04:51;24.30;46.90
13521;DHT22;6832;51.186;3.236;2024-02-23T00:07:18;24.30;47.00
13521;DHT22;6832;51.186;3.236;2024-02-23T00:09:45;24.30;47.00
13521;DHT22;6832;51.186;3.236;2024-02-23T00:12:12;24.30;47.00
13521;DHT22;6832;51.186;3.236;2024-02-23T00:14:39;24.20;46.90
13521;DHT22;6832;51.186;3.236;2024-02-23T00:17:06;24.30;47.00
13521;DHT22;6832;51.186;3.236;2024-02-23T00:19:33;24.30;47.10
13521;DHT22;6832;51.186;3.236;2024-02-23T00:22:01;24.30;47.00
13521;DHT22;6832;51.186;3.236;2024-02-23T00:24:29;24.30;47.00
13521;DHT22;6832;51.186;3.236;2024-02-23T00:26:56;24.30;46.90
13521;DHT22;6832;51.186;3.236;2024-02-23T00:29:23;24.30;47.00
13521;DHT22;6832;51.186;3.236;2024-02-23T00:31:50;24.30;47.00
13521;DHT22;6832;51.186;3.236;2024-02-23T00:34:17;24.30;47.00
13521;DHT22;6832;51.186;3.236;2024-02-23T00:36:43;24.30;47.00
13521;DHT22;6832;51.186;3.236;2024-02-23T00:39:12;24.30;47.10
13521;DHT22;6832;51.186;3.236;2024-02-23T00:41:39;24.30;47.00
13521;DHT22;6832;51.186;3.236;2024-02-23T00:44:06;24.40;47.10
13521;DHT22;6832;51.186;3.236;2024-02-23T00:46:33;24.40;47.70
13521;DHT22;6832;51.186;3.236;2024-02-23T00:49:00;24.40;47.10
13521;DHT22;6832;51.186;3.236;2024-02-23T00:51:27;24.40;47.10
13521;DHT22;6832;51.186;3.236;2024-02-23T00:53:54;24.40;47.00
13521;DHT22;6832;51.186;3.236;2024-02-23T00:56:23;24.40;47.00
13521;DHT22;6832;51.186;3.236;2024-02-23T00:58:50;24.40;47.00
13521;DHT22;6832;51.186;3.236;2024-02-23T01:01:17;24.40;47.00
13521;DHT22;6832;51.186;3.236;2024-02-23T01:03:44;24.50;47.10
13521;DHT22;6832;51.186;3.236;2024-02-23T01:06:11;24.50;47.00
13521;DHT22;6832;51.186;3.236;2024-02-23T01:08:38;24.50;47.00
13521;DHT22;6832;51.186;3.236;2024-02-23T01:11:05;24.50;47.00
13521;DHT22;6832;51.186;3.236;2024-02-23T01:13:34;24.50;47.00
13521;DHT22;6832;51.186;3.236;2024-02-23T01:16:01;24.50;46.90
13521;DHT22;6832;51.186;3.236;2024-02-23T01:18:28;24.50;46.90
13521;DHT22;6832;51.186;3.236;2024-02-23T01:20:56;24.50;46.90
13521;DHT22;6832;51.186;3.236;2024-02-23T01:23:23;24.50;46.90
13521;DHT22;6832;51.186;3.236;2024-02-23T01:25:49;24.50;46.80
13521;DHT22;6832;51.186;3.236;2024-02-23T01:28:16;24.60;46.90
13521;DHT22;6832;51.186;3.236;2024-02-23T01:30:45;24.50;46.80
13521;DHT22;6832;51.186;3.236;2024-02-23T01:33:11;24.60;46.90
13521;DHT22;6832;51.186;3.236;2024-02-23T01:35:38;24.50;46.80
13521;DHT22;6832;51.186;3.236;2024-02-23T01:38:05;24.50;46.80
13521;DHT22;6832;51.186;3.236;2024-02-23T01:40:32;24.60;46.90
13521;DHT22;6832;51.186;3.236;2024-02-23T01:43:03;24.50;46.80
13521;DHT22;6832;51.186;3.236;2024-02-23T01:45:30;24.60;46.80
13521;DHT22;6832;51.186;3.236;2024-02-23T01:47:59;24.60;47.20
13521;DHT22;6832;51.186;3.236;2024-02-23T01:50:27;24.60;46.80
13521;DHT22;6832;51.186;3.236;2024-02-23T01:52:57;24.60;46.80
13521;DHT22;6832;51.186;3.236;2024-02-23T01:55:27;24.60;46.80
13521;DHT22;6832;51.186;3.236;2024-02-23T01:57:54;24.60;46.80
13521;DHT22;6832;51.186;3.236;2024-02-23T02:00:21;24.60;47.40
13521;DHT22;6832;51.186;3.236;2024-02-23T02:02:48;24.60;46.80
13521;DHT22;6832;51.186;3.236;2024-02-23T02:05:17;24.60;46.80
13521;DHT22;6832;51.186;3.236;2024-02-23T02:07:45;24.60;46.80
13521;DHT22;6832;51.186;3.236;2024-02-23T02:10:13;24.60;46.70
13521;DHT22;6832;51.186;3.236;2024-02-23T02:12:39;24.60;46.70
13521;DHT22;6832;51.186;3.236;2024-02-23T02:15:07;24.60;46.80
13521;DHT22;6832;51.186;3.236;2024-02-23T02:17:34;24.70;46.80
13521;DHT22;6832;51.186;3.236;2024-02-23T02:20:03;24.70;46.80
13521;DHT22;6832;51.186;3.236;2024-02-23T02:22:33;24.60;46.70
13521;DHT22;6832;51.186;3.236;2024-02-23T02:25:00;24.70;46.80
13521;DHT22;6832;51.186;3.236;2024-02-23T02:27:27;24.70;46.80
13521;DHT22;6832;51.186;3.236;2024-02-23T02:29:54;24.60;46.70
13521;DHT22;6832;51.186;3.236;2024-02-23T02:32:21;24.70;46.70
13521;DHT22;6832;51.186;3.236;2024-02-23T02:34:47;24.60;46.60
13521;DHT22;6832;51.186;3.236;2024-02-23T02:37:14;24.70;46.70
13521;DHT22;6832;51.186;3.236;2024-02-23T02:39:43;24.70;46.70
13521;DHT22;6832;51.186;3.236;2024-02-23T02:42:09;24.70;46.60
13521;DHT22;6832;51.186;3.236;2024-02-23T02:44:36;24.70;46.70
13521;DHT22;6832;51.186;3.236;2024-02-23T02:47:03;24.70;46.70
13521;DHT22;6832;51.186;3.236;2024-02-23T02:49:30;24.70;46.60
13521;DHT22;6832;51.186;3.236;2024-02-23T02:51:57;24.70;46.70
13521;DHT22;6832;51.186;3.236;2024-02-23T02:54:24;24.70;46.70
13521;DHT22;6832;51.186;3.236;2024-02-23T02:56:52;24.70;46.60
13521;DHT22;6832;51.186;3.236;2024-02-23T02:59:20;24.70;46.60
13521;DHT22;6832;51.186;3.236;2024-02-23T03:01:46;24.70;46.60
13521;DHT22;6832;51.186;3.236;2024-02-23T03:04:13;24.70;46.60
13521;DHT22;6832;51.186;3.236;2024-02-23T03:06:40;24.70;46.60
13521;DHT22;6832;51.186;3.236;2024-02-23T03:09:07;24.70;46.60
13521;DHT22;6832;51.186;3.236;2024-02-23T03:11:34;24.70;46.60
13521;DHT22;6832;51.186;3.236;2024-02-23T03:14:02;24.70;46.60
13521;DHT22;6832;51.186;3.236;2024-02-23T03:16:29;24.70;46.50
13521;DHT22;6832;51.186;3.236;2024-02-23T03:18:57;24.70;46.60
13521;DHT22;6832;51.186;3.236;2024-02-23T03:21:24;24.70;46.50
13521;DHT22;6832;51.186;3.236;2024-02-23T03:23:50;24.70;46.60
13521;DHT22;6832;51.186;3.236;2024-02-23T03:26:17;24.70;46.60
13521;DHT22;6832;51.186;3.236;2024-02-23T03:28:44;24.70;46.50
13521;DHT22;6832;51.186;3.236;2024-02-23T03:31:13;24.70;46.50
13521;DHT22;6832;51.186;3.236;2024-02-23T03:33:39;24.70;46.50
13521;DHT22;6832;51.186;3.236;2024-02-23T03:36:06;24.70;46.50
13521;DHT22;6832;51.186;3.236;2024-02-23T03:38:33;24.70;46.50
13521;DHT22;6832;51.186;3.236;2024-02-23T03:41:00;24.70;46.50
13521;DHT22;6832;51.186;3.236;2024-02-23T03:43:27;24.70;46.50
13521;DHT22;6832;51.186;3.236;2024-02-23T03:45:54;24.80;46.60
13521;DHT22;6832;51.186;3.236;2024-02-23T03:48:22;24.80;46.50
13521;DHT22;6832;51.186;3.236;2024-02-23T03:50:49;24.70;46.50
13521;DHT22;6832;51.186;3.236;2024-02-23T03:53:16;24.80;46.60
13521;DHT22;6832;51.186;3.236;2024-02-23T03:55:43;24.80;46.50
13521;DHT22;6832;51.186;3.236;2024-02-23T03:58:10;24.70;46.50
13521;DHT22;6832;51.186;3.236;2024-02-23T04:00:37;24.80;46.50
13521;DHT22;6832;51.186;3.236;2024-02-23T04:03:04;24.80;46.50
13521;DHT22;6832;51.186;3.236;2024-02-23T04:05:32;24.80;46.50
13521;DHT22;6832;51.186;3.236;2024-02-23T04:07:59;24.80;46.50
13521;DHT22;6832;51.186;3.236;2024-02-23T04:10:26;24.80;46.50
13521;DHT22;6832;51.186;3.236;2024-02-23T04:12:52;24.80;46.40
13521;DHT22;6832;51.186;3.236;2024-02-23T04:15:19;24.80;46.40
13521;DHT22;6832;51.186;3.236;2024-02-23T04:17:46;24.80;46.40
13521;DHT22;6832;51.186;3.236;2024-02-23T04:20:13;24.80;46.40
13521;DHT22;6832;51.186;3.236;2024-02-23T04:22:42;24.80;46.40
13521;DHT22;6832;51.186;3.236;2024-02-23T04:25:08;24.80;46.40
13521;DHT22;6832;51.186;3.236;2024-02-23T04:27:35;24.80;46.40
13521;DHT22;6832;51.186;3.236;2024-02-23T04:30:03;24.80;46.30
13521;DHT22;6832;51.186;3.236;2024-02-23T04:32:30;24.80;46.30
13521;DHT22;6832;51.186;3.236;2024-02-23T04:34:57;24.80;46.30
13521;DHT22;6832;51.186;3.236;2024-02-23T04:37:24;24.80;46.30
13521;DHT22;6832;51.186;3.236;2024-02-23T04:39:52;24.80;46.30
13521;DHT22;6832;51.186;3.236;2024-02-23T04:42:19;24.80;46.30
13521;DHT22;6832;51.186;3.236;2024-02-23T04:44:46;24.80;46.30
13521;DHT22;6832;51.186;3.236;2024-02-23T04:47:14;24.80;46.30
13521;DHT22;6832;51.186;3.236;2024-02-23T04:49:41;24.80;46.30
13521;DHT22;6832;51.186;3.236;2024-02-23T04:52:08;24.80;46.20
13521;DHT22;6832;51.186;3.236;2024-02-23T04:54:35;24.80;46.30
13521;DHT22;6832;51.186;3.236;2024-02-23T04:57:03;24.80;46.20
13521;DHT22;6832;51.186;3.236;2024-02-23T04:59:30;24.80;46.20
13521;DHT22;6832;51.186;3.236;2024-02-23T05:01:57;24.80;46.20
13521;DHT22;6832;51.186;3.236;2024-02-23T05:04:24;24.80;46.10
13521;DHT22;6832;51.186;3.236;2024-02-23T05:06:52;24.80;46.10
13521;DHT22;6832;51.186;3.236;2024-02-23T05:09:19;24.80;46.10
13521;DHT22;6832;51.186;3.236;2024-02-23T05:11:46;24.80;46.10
13521;DHT22;6832;51.186;3.236;2024-02-23T05:14:14;24.80;46.10
13521;DHT22;6832;51.186;3.236;2024-02-23T05:16:41;24.80;46.10
13521;DHT22;6832;51.186;3.236;2024-02-23T05:19:08;24.80;46.00
13521;DHT22;6832;51.186;3.236;2024-02-23T05:21:35;24.80;46.10
13521;DHT22;6832;51.186;3.236;2024-02-23T05:24:02;24.80;46.00
13521;DHT22;6832;51.186;3.236;2024-02-23T05:26:28;24.80;46.00
13521;DHT22;6832;51.186;3.236;2024-02-23T05:28:55;24.80;46.00
13521;DHT22;6832;51.186;3.236;2024-02-23T05:31:44;24.80;46.00
13521;DHT22;6832;51.186;3.236;2024-02-23T05:34:11;24.80;46.00
13521;DHT22;6832;51.186;3.236;2024-02-23T05:36:38;24.80;46.00
13521;DHT22;6832;51.186;3.236;2024-02-23T05:39:05;24.80;46.00
13521;DHT22;6832;51.186;3.236;2024-02-23T05:41:33;24.80;46.00
13521;DHT22;6832;51.186;3.236;2024-02-23T05:43:59;24.80;46.00
13521;DHT22;6832;51.186;3.236;2024-02-23T05:46:31;24.80;46.00
13521;DHT22;6832;51.186;3.236;2024-02-23T05:48:58;24.80;46.00
13521;DHT22;6832;51.186;3.236;2024-02-23T05:51:25;24.80;46.00
13521;DHT22;6832;51.186;3.236;2024-02-23T05:53:52;24.80;46.00
13521;DHT22;6832;51.186;3.236;2024-02-23T05:56:19;24.80;46.00
13521;DHT22;6832;51.186;3.236;2024-02-23T05:58:46;24.80;46.00
13521;DHT22;6832;51.186;3.236;2024-02-23T06:01:13;24.80;46.60
13521;DHT22;6832;51.186;3.236;2024-02-23T06:03:41;24.80;46.00
13521;DHT22;6832;51.186;3.236;2024-02-23T06:06:08;24.80;46.00
13521;DHT22;6832;51.186;3.236;2024-02-23T06:08:35;24.80;46.00
13521;DHT22;6832;51.186;3.236;2024-02-23T06:11:03;24.80;46.00
13521;DHT22;6832;51.186;3.236;2024-02-23T06:13:30;24.80;46.00
13521;DHT22;6832;51.186;3.236;2024-02-23T06:15:57;24.80;46.00
13521;DHT22;6832;51.186;3.236;2024-02-23T06:18:23;24.80;46.00
13521;DHT22;6832;51.186;3.236;2024-02-23T06:20:52;24.70;45.90
13521;DHT22;6832;51.186;3.236;2024-02-23T06:23:19;24.80;46.00
13521;DHT22;6832;51.186;3.236;2024-02-23T06:25:47;24.80;46.00
13521;DHT22;6832;51.186;3.236;2024-02-23T06:28:14;24.80;46.00
13521;DHT22;6832;51.186;3.236;2024-02-23T06:30:41;24.80;45.90
13521;DHT22;6832;51.186;3.236;2024-02-23T06:33:08;24.80;46.00
13521;DHT22;6832;51.186;3.236;2024-02-23T06:35:35;24.80;45.90
13521;DHT22;6832;51.186;3.236;2024-02-23T06:38:03;24.80;46.00
13521;DHT22;6832;51.186;3.236;2024-02-23T06:40:31;24.80;45.90
13521;DHT22;6832;51.186;3.236;2024-02-23T06:42:58;24.70;45.80
13521;DHT22;6832;51.186;3.236;2024-02-23T06:45:25;24.80;46.50
13521;DHT22;6832;51.186;3.236;2024-02-23T06:47:52;24.80;45.90
13521;DHT22;6832;51.186;3.236;2024-02-23T06:50:19;24.80;45.90
13521;DHT22;6832;51.186;3.236;2024-02-23T06:52:47;24.80;45.80
13521;DHT22;6832;51.186;3.236;2024-02-23T06:55:16;24.80;45.90
13521;DHT22;6832;51.186;3.236;2024-02-23T06:57:43;24.80;45.80
13521;DHT22;6832;51.186;3.236;2024-02-23T07:00:11;24.80;45.80
13521;DHT22;6832;51.186;3.236;2024-02-23T07:02:38;24.80;45.90
13521;DHT22;6832;51.186;3.236;2024-02-23T07:05:06;24.80;45.90
13521;DHT22;6832;51.186;3.236;2024-02-23T07:07:34;24.80;45.80
13521;DHT22;6832;51.186;3.236;2024-02-23T07:10:02;24.80;45.80
13521;DHT22;6832;51.186;3.236;2024-02-23T07:12:30;24.80;45.80
13521;DHT22;6832;51.186;3.236;2024-02-23T07:14:57;24.80;45.80
13521;DHT22;6832;51.186;3.236;2024-02-23T07:17:24;24.80;45.80
13521;DHT22;6832;51.186;3.236;2024-02-23T07:19:51;24.80;45.80
13521;DHT22;6832;51.186;3.236;2024-02-23T07:22:18;24.80;45.80
13521;DHT22;6832;51.186;3.236;2024-02-23T07:24:46;24.80;45.80
13521;DHT22;6832;51.186;3.236;2024-02-23T07:27:13;24.80;45.70
13521;DHT22;6832;51.186;3.236;2024-02-23T07:29:41;24.80;45.80
13521;DHT22;6832;51.186;3.236;2024-02-23T07:32:08;24.80;45.70
13521;DHT22;6832;51.186;3.236;2024-02-23T07:34:35;24.70;45.70
13521;DHT22;6832;51.186;3.236;2024-02-23T07:37:02;24.70;45.90
13521;DHT22;6832;51.186;3.236;2024-02-23T07:39:29;24.70;45.80
13521;DHT22;6832;51.186;3.236;2024-02-23T07:41:56;24.80;45.80
13521;DHT22;6832;51.186;3.236;2024-02-23T07:44:23;24.80;45.70
13521;DHT22;6832;51.186;3.236;2024-02-23T07:46:52;24.80;45.60
13521;DHT22;6832;51.186;3.236;2024-02-23T07:49:20;24.90;45.70
13521;DHT22;6832;51.186;3.236;2024-02-23T07:51:48;24.80;45.60
13521;DHT22;6832;51.186;3.236;2024-02-23T07:54:14;24.90;45.60
13521;DHT22;6832;51.186;3.236;2024-02-23T07:56:41;24.90;45.60
13521;DHT22;6832;51.186;3.236;2024-02-23T07:59:09;24.90;45.60
13521;DHT22;6832;51.186;3.236;2024-02-23T08:01:36;24.90;45.60
13521;DHT22;6832;51.186;3.236;2024-02-23T08:04:04;24.90;45.60
13521;DHT22;6832;51.186;3.236;2024-02-23T08:06:31;24.90;45.50
13521;DHT22;6832;51.186;3.236;2024-02-23T08:08:58;24.90;45.60
13521;DHT22;6832;51.186;3.236;2024-02-23T08:11:25;24.90;45.50
13521;DHT22;6832;51.186;3.236;2024-02-23T08:13:52;24.90;45.50
13521;DHT22;6832;51.186;3.236;2024-02-23T08:16:19;24.90;45.50
13521;DHT22;6832;51.186;3.236;2024-02-23T08:18:46;24.90;45.50
13521;DHT22;6832;51.186;3.236;2024-02-23T08:21:14;24.90;45.50
13521;DHT22;6832;51.186;3.236;2024-02-23T08:23:41;24.90;45.40
13521;DHT22;6832;51.186;3.236;2024-02-23T08:26:09;24.90;45.50
13521;DHT22;6832;51.186;3.236;2024-02-23T08:28:36;24.90;45.40
13521;DHT22;6832;51.186;3.236;2024-02-23T08:31:03;24.90;45.50
13521;DHT22;6832;51.186;3.236;2024-02-23T08:33:30;24.90;45.40
13521;DHT22;6832;51.186;3.236;2024-02-23T08:35:57;25.00;45.40
13521;DHT22;6832;51.186;3.236;2024-02-23T08:38:25;24.90;45.40
13521;DHT22;6832;51.186;3.236;2024-02-23T08:40:52;24.90;45.30
13521;DHT22;6832;51.186;3.236;2024-02-23T08:43:19;24.90;45.40
13521;DHT22;6832;51.186;3.236;2024-02-23T08:45:46;25.00;45.40
13521;DHT22;6832;51.186;3.236;2024-02-23T08:48:14;24.90;45.40
13521;DHT22;6832;51.186;3.236;2024-02-23T08:50:41;25.00;45.40
13521;DHT22;6832;51.186;3.236;2024-02-23T08:53:08;24.90;45.30
13521;DHT22;6832;51.186;3.236;2024-02-23T08:55:36;24.90;45.30
13521;DHT22;6832;51.186;3.236;2024-02-23T08:58:03;25.00;45.40
13521;DHT22;6832;51.186;3.236;2024-02-23T09:00:31;25.00;45.40
13521;DHT22;6832;51.186;3.236;2024-02-23T09:02:58;25.00;45.40
13521;DHT22;6832;51.186;3.236;2024-02-23T09:05:25;25.00;45.40
13521;DHT22;6832;51.186;3.236;2024-02-23T09:07:53;24.90;45.30
13521;DHT22;6832;51.186;3.236;2024-02-23T09:10:20;24.90;45.30
13521;DHT22;6832;51.186;3.236;2024-02-23T09:12:48;25.00;45.40
13521;DHT22;6832;51.186;3.236;2024-02-23T09:15:15;25.00;45.40
13521;DHT22;6832;51.186;3.236;2024-02-23T09:17:42;25.00;45.40
13521;DHT22;6832;51.186;3.236;2024-02-23T09:20:10;25.00;45.40
13521;DHT22;6832;51.186;3.236;2024-02-23T09:22:37;25.00;45.40
13521;DHT22;6832;51.186;3.236;2024-02-23T09:25:06;25.00;45.40
13521;DHT22;6832;51.186;3.236;2024-02-23T09:27:34;25.00;45.40
13521;DHT22;6832;51.186;3.236;2024-02-23T09:30:04;25.10;45.40
13521;DHT22;6832;51.186;3.236;2024-02-23T09:32:32;25.00;45.30
13521;DHT22;6832;51.186;3.236;2024-02-23T09:34:59;25.10;45.40
13521;DHT22;6832;51.186;3.236;2024-02-23T09:37:25;25.10;45.30
13521;DHT22;6832;51.186;3.236;2024-02-23T09:39:52;25.10;45.30
13521;DHT22;6832;51.186;3.236;2024-02-23T09:42:22;25.10;45.30
13521;DHT22;6832;51.186;3.236;2024-02-23T09:44:59;25.10;45.30
13521;DHT22;6832;51.186;3.236;2024-02-23T09:47:27;25.10;45.20
13521;DHT22;6832;51.186;3.236;2024-02-23T09:49:55;25.10;45.20
13521;DHT22;6832;51.186;3.236;2024-02-23T09:52:23;25.20;45.30
13521;DHT22;6832;51.186;3.236;2024-02-23T09:54:49;25.10;45.20
13521;DHT22;6832;51.186;3.236;2024-02-23T09:57:17;25.10;45.20
13521;DHT22;6832;51.186;3.236;2024-02-23T09:59:44;25.20;45.30
13521;DHT22;6832;51.186;3.236;2024-02-23T10:02:15;25.20;45.30
13521;DHT22;6832;51.186;3.236;2024-02-23T10:04:44;25.20;45.30
13521;DHT22;6832;51.186;3.236;2024-02-23T10:07:14;25.20;45.30
13521;DHT22;6832;51.186;3.236;2024-02-23T10:09:42;25.20;45.30
13521;DHT22;6832;51.186;3.236;2024-02-23T10:12:08;25.20;45.50
13521;DHT22;6832;51.186;3.236;2024-02-23T10:14:35;25.20;45.30
13521;DHT22;6832;51.186;3.236;2024-02-23T10:17:02;25.20;45.30
13521;DHT22;6832;51.186;3.236;2024-02-23T10:19:29;25.20;45.30
13521;DHT22;6832;51.186;3.236;2024-02-23T10:21:57;25.30;46.00
13521;DHT22;6832;51.186;3.236;2024-02-23T10:24:24;25.30;45.30
13521;DHT22;6832;51.186;3.236;2024-02-23T10:26:51;25.30;45.30
13521;DHT22;6832;51.186;3.236;2024-02-23T10:29:18;25.30;45.30
13521;DHT22;6832;51.186;3.236;2024-02-23T10:31:47;25.40;45.40
13521;DHT22;6832;51.186;3.236;2024-02-23T10:34:18;25.40;45.40
13521;DHT22;6832;51.186;3.236;2024-02-23T10:36:46;25.40;45.40
13521;DHT22;6832;51.186;3.236;2024-02-23T10:39:17;25.50;45.50
13521;DHT22;6832;51.186;3.236;2024-02-23T10:41:47;25.40;45.30
13521;DHT22;6832;51.186;3.236;2024-02-23T10:44:16;25.50;45.30
13521;DHT22;6832;51.186;3.236;2024-02-23T10:46:44;25.50;45.30
13521;DHT22;6832;51.186;3.236;2024-02-23T10:49:13;25.60;45.30
13521;DHT22;6832;51.186;3.236;2024-02-23T10:51:42;25.60;45.30
13521;DHT22;6832;51.186;3.236;2024-02-23T10:54:10;25.60;45.30
13521;DHT22;6832;51.186;3.236;2024-02-23T10:56:39;25.70;45.30
13521;DHT22;6832;51.186;3.236;2024-02-23T10:59:08;25.70;45.20
13521;DHT22;6832;51.186;3.236;2024-02-23T11:01:35;25.70;45.20
13521;DHT22;6832;51.186;3.236;2024-02-23T11:04:03;25.70;45.30
13521;DHT22;6832;51.186;3.236;2024-02-23T11:06:33;25.80;45.30
13521;DHT22;6832;51.186;3.236;2024-02-23T11:09:07;25.80;45.30
13521;DHT22;6832;51.186;3.236;2024-02-23T11:11:35;25.80;45.30
13521;DHT22;6832;51.186;3.236;2024-02-23T11:14:07;25.90;45.30
13521;DHT22;6832;51.186;3.236;2024-02-23T11:16:39;25.90;45.40
13521;DHT22;6832;51.186;3.236;2024-02-23T11:19:08;26.00;45.40
13521;DHT22;6832;51.186;3.236;2024-02-23T11:21:35;26.00;45.40
13521;DHT22;6832;51.186;3.236;2024-02-23T11:24:04;26.10;45.40
13521;DHT22;6832;51.186;3.236;2024-02-23T11:26:31;26.10;45.40
13521;DHT22;6832;51.186;3.236;2024-02-23T11:28:59;26.10;45.50
13521;DHT22;6832;51.186;3.236;2024-02-23T11:31:30;26.20;45.40
13521;DHT22;6832;51.186;3.236;2024-02-23T11:33:57;26.20;45.30
13521;DHT22;6832;51.186;3.236;2024-02-23T11:36:28;26.30;45.30
13521;DHT22;6832;51.186;3.236;2024-02-23T11:38:57;26.30;45.30
13521;DHT22;6832;51.186;3.236;2024-02-23T11:41:25;26.40;45.40
13521;DHT22;6832;51.186;3.236;2024-02-23T11:43:53;26.40;45.30
13521;DHT22;6832;51.186;3.236;2024-02-23T11:46:21;26.40;45.20
13521;DHT22;6832;51.186;3.236;2024-02-23T11:48:49;26.50;45.20
13521;DHT22;6832;51.186;3.236;2024-02-23T11:51:19;26.50;45.00
13521;DHT22;6832;51.186;3.236;2024-02-23T11:53:46;26.50;45.00
13521;DHT22;6832;51.186;3.236;2024-02-23T11:56:14;26.50;44.90
13521;DHT22;6832;51.186;3.236;2024-02-23T11:58:41;26.50;44.80
13521;DHT22;6832;51.186;3.236;2024-02-23T12:01:08;26.50;44.80
13521;DHT22;6832;51.186;3.236;2024-02-23T12:03:35;26.50;44.70
13521;DHT22;6832;51.186;3.236;2024-02-23T12:06:04;26.60;44.80
13521;DHT22;6832;51.186;3.236;2024-02-23T12:08:32;26.50;44.70
13521;DHT22;6832;51.186;3.236;2024-02-23T12:11:04;26.60;44.60
13521;DHT22;6832;51.186;3.236;2024-02-23T12:13:31;26.50;44.50
13521;DHT22;6832;51.186;3.236;2024-02-23T12:15:58;26.50;44.40
13521;DHT22;6832;51.186;3.236;2024-02-23T12:18:25;26.50;44.40
13521;DHT22;6832;51.186;3.236;2024-02-23T12:20:52;26.50;44.40
13521;DHT22;6832;51.186;3.236;2024-02-23T12:23:21;26.50;44.30
13521;DHT22;6832;51.186;3.236;2024-02-23T12:25:54;26.50;44.30
13521;DHT22;6832;51.186;3.236;2024-02-23T12:28:21;26.50;44.20
13521;DHT22;6832;51.186;3.236;2024-02-23T12:30:59;26.40;44.30
13521;DHT22;6832;51.186;3.236;2024-02-23T12:33:27;26.40;44.20
13521;DHT22;6832;51.186;3.236;2024-02-23T12:35:55;26.40;44.20
13521;DHT22;6832;51.186;3.236;2024-02-23T12:38:23;26.40;44.30
13521;DHT22;6832;51.186;3.236;2024-02-23T12:40:51;26.40;44.20
13521;DHT22;6832;51.186;3.236;2024-02-23T12:43:18;26.30;44.20
13521;DHT22;6832;51.186;3.236;2024-02-23T12:45:47;26.30;44.10
13521;DHT22;6832;51.186;3.236;2024-02-23T12:48:15;26.30;44.20
13521;DHT22;6832;51.186;3.236;2024-02-23T12:50:42;26.30;44.20
13521;DHT22;6832;51.186;3.236;2024-02-23T12:53:10;26.30;44.20
13521;DHT22;6832;51.186;3.236;2024-02-23T12:55:39;26.30;44.30
13521;DHT22;6832;51.186;3.236;2024-02-23T12:58:06;26.20;44.20
13521;DHT22;6832;51.186;3.236;2024-02-23T13:00:33;26.20;44.20
13521;DHT22;6832;51.186;3.236;2024-02-23T13:03:00;26.20;44.20
13521;DHT22;6832;51.186;3.236;2024-02-23T13:05:27;26.20;44.20
13521;DHT22;6832;51.186;3.236;2024-02-23T13:07:54;26.20;44.20
13521;DHT22;6832;51.186;3.236;2024-02-23T13:10:20;26.20;44.20
13521;DHT22;6832;51.186;3.236;2024-02-23T13:12:49;26.20;44.20
13521;DHT22;6832;51.186;3.236;2024-02-23T13:15:16;26.20;44.20
13521;DHT22;6832;51.186;3.236;2024-02-23T13:17:43;26.20;44.20
13521;DHT22;6832;51.186;3.236;2024-02-23T13:20:11;26.20;44.20
13521;DHT22;6832;51.186;3.236;2024-02-23T13:22:39;26.20;44.20
13521;DHT22;6832;51.186;3.236;2024-02-23T13:25:06;26.20;44.20
13521;DHT22;6832;51.186;3.236;2024-02-23T13:27:33;26.10;44.10
13521;DHT22;6832;51.186;3.236;2024-02-23T13:30:02;26.20;44.20
13521;DHT22;6832;51.186;3.236;2024-02-23T13:32:29;26.10;44.00
13521;DHT22;6832;51.186;3.236;2024-02-23T13:34:55;26.10;44.00
13521;DHT22;6832;51.186;3.236;2024-02-23T13:37:22;26.10;44.00
13521;DHT22;6832;51.186;3.236;2024-02-23T13:39:49;26.10;44.00
13521;DHT22;6832;51.186;3.236;2024-02-23T13:42:16;26.10;44.00
13521;DHT22;6832;51.186;3.236;2024-02-23T13:44:43;26.10;44.00
13521;DHT22;6832;51.186;3.236;2024-02-23T13:47:12;26.10;44.00
13521;DHT22;6832;51.186;3.236;2024-02-23T13:49:39;26.00;43.90
13521;DHT22;6832;51.186;3.236;2024-02-23T13:52:06;26.00;43.90
13521;DHT22;6832;51.186;3.236;2024-02-23T13:54:33;26.00;43.90
13521;DHT22;6832;51.186;3.236;2024-02-23T13:57:01;26.00;43.90
13521;DHT22;6832;51.186;3.236;2024-02-23T13:59:28;25.90;43.70
13521;DHT22;6832;51.186;3.236;2024-02-23T14:01:55;25.90;43.80
13521;DHT22;6832;51.186;3.236;2024-02-23T14:04:23;25.90;43.70
13521;DHT22;6832;51.186;3.236;2024-02-23T14:06:51;25.90;43.70
13521;DHT22;6832;51.186;3.236;2024-02-23T14:09:18;25.90;43.80
13521;DHT22;6832;51.186;3.236;2024-02-23T14:11:45;25.90;43.80
13521;DHT22;6832;51.186;3.236;2024-02-23T14:14:12;25.80;43.80
13521;DHT22;6832;51.186;3.236;2024-02-23T14:16:40;25.80;43.80
13521;DHT22;6832;51.186;3.236;2024-02-23T14:19:06;25.80;43.80
13521;DHT22;6832;51.186;3.236;2024-02-23T14:21:35;25.70;43.70
13521;DHT22;6832;51.186;3.236;2024-02-23T14:24:03;25.70;43.70
13521;DHT22;6832;51.186;3.236;2024-02-23T14:26:30;25.70;43.70
13521;DHT22;6832;51.186;3.236;2024-02-23T14:28:57;25.70;43.70
13521;DHT22;6832;51.186;3.236;2024-02-23T14:31:24;25.70;43.70
13521;DHT22;6832;51.186;3.236;2024-02-23T14:33:51;25.70;44.30
13521;DHT22;6832;51.186;3.236;2024-02-23T14:36:18;25.70;43.70
13521;DHT22;6832;51.186;3.236;2024-02-23T14:38:46;25.60;43.70
13521;DHT22;6832;51.186;3.236;2024-02-23T14:41:13;25.60;43.70
13521;DHT22;6832;51.186;3.236;2024-02-23T14:43:40;25.60;43.70
13521;DHT22;6832;51.186;3.236;2024-02-23T14:46:07;25.60;43.70
13521;DHT22;6832;51.186;3.236;2024-02-23T14:48:34;25.60;44.30
13521;DHT22;6832;51.186;3.236;2024-02-23T14:51:02;25.60;43.70
13521;DHT22;6832;51.186;3.236;2024-02-23T14:53:30;25.50;43.60
13521;DHT22;6832;51.186;3.236;2024-02-23T14:55:58;25.50;43.60
13521;DHT22;6832;51.186;3.236;2024-02-23T14:58:25;25.50;43.60
13521;DHT22;6832;51.186;3.236;2024-02-23T15:00:52;25.50;43.60
13521;DHT22;6832;51.186;3.236;2024-02-23T15:03:19;25.40;43.50
13521;DHT22;6832;51.186;3.236;2024-02-23T15:05:46;25.40;43.60
13521;DHT22;6832;51.186;3.236;2024-02-23T15:08:12;25.40;43.60
13521;DHT22;6832;51.186;3.236;2024-02-23T15:10:39;25.40;43.60
13521;DHT22;6832;51.186;3.236;2024-02-23T15:13:08;25.30;43.60
13521;DHT22;6832;51.186;3.236;2024-02-23T15:15:35;25.30;43.60
13521;DHT22;6832;51.186;3.236;2024-02-23T15:18:06;25.30;43.60
13521;DHT22;6832;51.186;3.236;2024-02-23T15:20:33;25.30;43.60
13521;DHT22;6832;51.186;3.236;2024-02-23T15:23:00;25.30;43.60
13521;DHT22;6832;51.186;3.236;2024-02-23T15:25:27;25.30;43.70
13521;DHT22;6832;51.186;3.236;2024-02-23T15:27:54;25.20;43.60
13521;DHT22;6832;51.186;3.236;2024-02-23T15:30:24;25.30;43.70
13521;DHT22;6832;51.186;3.236;2024-02-23T15:32:51;25.20;44.20
13521;DHT22;6832;51.186;3.236;2024-02-23T15:35:18;25.30;43.70
13521;DHT22;6832;51.186;3.236;2024-02-23T15:37:45;25.20;43.70
13521;DHT22;6832;51.186;3.236;2024-02-23T15:40:12;25.20;43.90
13521;DHT22;6832;51.186;3.236;2024-02-23T15:42:40;25.20;43.70
13521;DHT22;6832;51.186;3.236;2024-02-23T15:45:07;25.20;43.70
13521;DHT22;6832;51.186;3.236;2024-02-23T15:47:36;25.20;43.70